createdAt,value
2018-09-15T00:00:30.988Z,3.50
2018-09-15T00:02:59.272Z,4.10
2018-09-15T00:05:27.498Z,3.80
2018-09-15T00:07:55.768Z,4.63
2018-09-15T00:10:24.016Z,4.57
2018-09-15T00:12:52.276Z,3.70
2018-09-15T00:15:20.527Z,4.40
2018-09-15T00:17:49.161Z,4.00
2018-09-15T00:20:17.434Z,3.90
2018-09-15T00:22:45.705Z,3.50
2018-09-15T00:25:13.979Z,3.57
2018-09-15T00:27:42.231Z,4.27
2018-09-15T00:30:10.516Z,4.47
2018-09-15T00:32:38.766Z,4.23
2018-09-15T00:35:07.202Z,3.90
2018-09-15T00:37:35.461Z,3.50
2018-09-15T00:40:03.712Z,3.70
2018-09-15T00:42:32.010Z,3.80
2018-09-15T00:45:00.301Z,3.70
2018-09-15T00:47:28.605Z,3.73
2018-09-15T00:49:56.889Z,3.33
2018-09-15T00:52:25.159Z,3.20
2018-09-15T00:54:53.417Z,3.00
2018-09-15T00:57:21.737Z,3.53
2018-09-15T00:59:49.981Z,2.70
2018-09-15T01:02:18.240Z,3.40
2018-09-15T01:04:46.475Z,4.13
2018-09-15T01:07:14.736Z,4.10
2018-09-15T01:09:43.028Z,4.37
2018-09-15T01:12:11.297Z,4.27
2018-09-15T01:14:39.535Z,3.87
2018-09-15T01:17:07.827Z,3.63
2018-09-15T01:19:36.207Z,3.27
2018-09-15T01:22:04.460Z,3.23
2018-09-15T01:24:32.685Z,3.87
2018-09-15T01:27:00.964Z,3.67
2018-09-15T01:29:29.222Z,2.97
2018-09-15T01:31:57.491Z,3.60
2018-09-15T01:34:25.742Z,3.47
2018-09-15T01:36:53.981Z,2.53
2018-09-15T01:39:22.225Z,3.13
2018-09-15T01:41:50.450Z,2.60
2018-09-15T01:44:18.772Z,3.80
2018-09-15T01:46:47.020Z,2.73
2018-09-15T01:49:15.258Z,2.80
2018-09-15T01:51:43.512Z,3.63
2018-09-15T01:54:11.767Z,2.77
2018-09-15T01:56:40.155Z,2.77
2018-09-15T01:59:08.401Z,2.57
2018-09-15T02:01:36.662Z,2.73
2018-09-15T02:04:04.894Z,2.53
2018-09-15T02:06:33.172Z,3.27
2018-09-15T02:09:01.415Z,2.97
2018-09-15T02:11:29.678Z,2.40
2018-09-15T02:13:57.990Z,2.77
2018-09-15T02:16:26.231Z,1.93
2018-09-15T02:18:54.502Z,2.20
2018-09-15T02:21:22.743Z,2.47
2018-09-15T02:23:50.978Z,2.40
2018-09-15T02:26:19.270Z,2.70
2018-09-15T02:28:48.021Z,2.43
2018-09-15T02:31:16.274Z,2.73
2018-09-15T02:33:44.494Z,2.90
2018-09-15T02:36:12.779Z,2.97
2018-09-15T02:38:41.089Z,3.00
2018-09-15T02:41:09.372Z,2.37
2018-09-15T02:43:37.626Z,2.93
2018-09-15T02:46:06.003Z,2.70
2018-09-15T02:48:34.239Z,2.80
2018-09-15T02:51:02.542Z,2.77
2018-09-15T02:53:30.778Z,3.27
2018-09-15T02:55:59.024Z,2.30
2018-09-15T02:58:27.287Z,2.37
2018-09-15T03:00:55.556Z,2.37
2018-09-15T03:03:23.800Z,2.70
2018-09-15T03:05:52.082Z,1.70
2018-09-15T03:08:20.346Z,1.77
2018-09-15T03:10:48.729Z,1.80
2018-09-15T03:13:16.976Z,2.27
2018-09-15T03:15:45.227Z,2.10
2018-09-15T03:18:13.489Z,2.07
2018-09-15T03:20:41.728Z,2.60
2018-09-15T03:23:09.978Z,2.33
2018-09-15T03:25:38.665Z,2.07
2018-09-15T03:28:07.233Z,2.60
2018-09-15T03:30:36.592Z,2.87
2018-09-15T03:33:06.276Z,2.40
2018-09-15T03:35:35.425Z,3.00
2018-09-15T03:38:14.353Z,3.47
2018-09-15T03:40:44.834Z,2.97
2018-09-15T03:43:17.522Z,3.20
2018-09-15T03:45:46.122Z,3.20
2018-09-15T03:48:14.953Z,3.47
2018-09-15T03:50:45.853Z,3.07
2018-09-15T03:53:14.787Z,3.10
2018-09-15T03:55:44.232Z,2.80
2018-09-15T03:58:14.238Z,3.67
2018-09-15T04:00:42.531Z,3.50
2018-09-15T04:03:10.787Z,3.30
2018-09-15T04:05:39.031Z,3.70
2018-09-15T04:08:07.266Z,2.93
2018-09-15T04:10:35.526Z,3.00
2018-09-15T04:13:03.843Z,3.30
2018-09-15T04:15:32.075Z,3.43
2018-09-15T04:18:00.307Z,3.00
2018-09-15T04:20:28.522Z,3.00
2018-09-15T04:22:56.784Z,3.30
2018-09-15T04:25:25.034Z,2.47
2018-09-15T04:27:53.328Z,3.17
2018-09-15T04:30:21.546Z,2.80
2018-09-15T04:32:49.821Z,2.40
2018-09-15T04:35:18.041Z,2.80
2018-09-15T04:37:46.357Z,3.40
2018-09-15T04:40:14.627Z,2.60
2018-09-15T04:42:42.883Z,2.97
2018-09-15T04:45:11.122Z,2.77
2018-09-15T04:47:39.371Z,2.87
2018-09-15T04:50:07.635Z,3.20
2018-09-15T04:52:35.936Z,3.37
2018-09-15T04:55:04.151Z,3.50
2018-09-15T04:57:32.883Z,3.70
2018-09-15T05:00:01.154Z,2.90
2018-09-15T05:02:29.404Z,3.03
2018-09-15T05:04:57.619Z,3.50
2018-09-15T05:07:25.879Z,2.57
2018-09-15T05:09:54.094Z,2.83
2018-09-15T05:12:22.380Z,3.20
2018-09-15T05:14:50.660Z,2.50
2018-09-15T05:17:19.059Z,2.83
2018-09-15T05:19:47.304Z,3.40
2018-09-15T05:22:15.544Z,2.87
2018-09-15T05:24:43.766Z,3.00
2018-09-15T05:27:12.007Z,3.50
2018-09-15T05:29:40.298Z,3.07
2018-09-15T05:32:08.583Z,3.30
2018-09-15T05:34:37.001Z,3.00
2018-09-15T05:37:05.324Z,3.60
2018-09-15T05:39:33.579Z,3.17
2018-09-15T05:42:01.838Z,3.67
2018-09-15T05:44:30.151Z,2.73
2018-09-15T05:46:58.489Z,2.50
2018-09-15T05:49:26.724Z,4.17
2018-09-15T05:51:55.020Z,3.77
2018-09-15T05:54:23.302Z,3.57
2018-09-15T05:56:51.627Z,4.33
2018-09-15T05:59:19.916Z,4.17
2018-09-15T06:01:48.296Z,4.37
2018-09-15T06:04:16.463Z,3.77
2018-09-15T06:06:44.776Z,3.53
2018-09-15T06:09:13.039Z,3.30
2018-09-15T06:11:42.039Z,4.07
2018-09-15T06:14:10.279Z,3.80
2018-09-15T06:16:38.579Z,3.60
2018-09-15T06:19:06.827Z,3.77
2018-09-15T06:21:35.120Z,4.33
2018-09-15T06:24:03.876Z,4.43
2018-09-15T06:26:32.984Z,3.83
2018-09-15T06:29:01.242Z,12.03
2018-09-15T06:31:29.683Z,4.83
2018-09-15T06:33:58.128Z,4.23
2018-09-15T06:36:26.525Z,5.33
2018-09-15T06:38:54.884Z,5.07
2018-09-15T06:41:32.629Z,4.13
2018-09-15T06:44:00.979Z,3.50
2018-09-15T06:46:29.268Z,4.30
2018-09-15T06:48:57.543Z,4.40
2018-09-15T06:51:25.954Z,3.73
2018-09-15T07:08:08.430Z,4.60
2018-09-15T07:10:36.807Z,3.67
2018-09-15T07:13:05.447Z,4.33
2018-09-15T07:15:33.760Z,4.27
2018-09-15T07:18:07.097Z,4.20
2018-09-15T07:20:38.649Z,4.10
2018-09-15T07:23:07.294Z,3.80
2018-09-15T07:25:36.736Z,4.60
2018-09-15T07:28:05.566Z,4.33
2018-09-15T07:30:33.883Z,4.50
2018-09-15T07:33:02.164Z,4.40
2018-09-15T07:35:30.460Z,4.37
2018-09-15T07:37:58.744Z,4.07
2018-09-15T07:40:27.158Z,4.47
2018-09-15T07:42:55.474Z,4.27
2018-09-15T07:45:23.848Z,4.20
2018-09-15T07:47:52.252Z,3.73
2018-09-15T07:50:20.641Z,4.23
2018-09-15T07:52:48.967Z,3.20
2018-09-15T07:55:17.403Z,4.50
2018-09-15T07:57:45.907Z,4.60
2018-09-15T08:00:14.090Z,3.00
2018-09-15T08:02:42.413Z,3.43
2018-09-15T08:05:10.764Z,3.50
2018-09-15T08:07:39.070Z,3.50
2018-09-15T08:10:07.369Z,4.40
2018-09-15T08:12:35.679Z,4.23
2018-09-15T08:15:04.085Z,3.20
2018-09-15T08:17:32.365Z,3.60
2018-09-15T08:20:00.809Z,3.70
2018-09-15T08:22:29.138Z,3.10
2018-09-15T08:24:57.406Z,3.10
2018-09-15T08:27:26.091Z,3.73
2018-09-15T08:29:54.392Z,3.03
2018-09-15T08:32:22.764Z,3.97
2018-09-15T08:34:51.181Z,4.27
2018-09-15T08:37:19.711Z,3.53
2018-09-15T08:39:48.229Z,3.13
2018-09-15T08:42:16.679Z,3.30
2018-09-15T08:44:44.980Z,3.83
2018-09-15T08:47:13.889Z,3.53
2018-09-15T08:49:43.080Z,2.73
2018-09-15T08:52:11.649Z,3.20
2018-09-15T08:54:40.386Z,3.00
2018-09-15T08:57:10.479Z,4.60
2018-09-15T08:59:39.123Z,3.13
2018-09-15T09:02:11.950Z,3.00
2018-09-15T09:04:40.404Z,2.70
2018-09-15T09:07:08.952Z,2.53
2018-09-15T09:09:37.256Z,3.10
2018-09-15T09:12:05.713Z,4.40
2018-09-15T09:14:34.051Z,3.73
2018-09-15T09:17:02.766Z,4.07
2018-09-15T09:19:31.102Z,3.40
2018-09-15T09:21:59.447Z,3.07
2018-09-15T09:24:27.935Z,3.07
2018-09-15T09:26:56.339Z,2.73
2018-09-15T09:29:24.742Z,2.53
2018-09-15T09:31:53.095Z,3.60
2018-09-15T09:34:21.604Z,3.20
2018-09-15T09:36:49.912Z,3.23
2018-09-15T09:39:18.287Z,3.50
2018-09-15T09:41:46.621Z,2.67
2018-09-15T09:44:14.967Z,2.20
2018-09-15T09:46:43.248Z,2.60
2018-09-15T09:49:11.508Z,2.60
2018-09-15T09:51:39.842Z,2.90
2018-09-15T09:54:08.199Z,3.43
2018-09-15T09:56:36.482Z,2.77
2018-09-15T09:59:05.321Z,3.00
2018-09-15T10:01:39.426Z,3.00
2018-09-15T10:04:12.467Z,3.30
2018-09-15T10:06:40.959Z,3.70
2018-09-15T10:09:11.134Z,2.73
2018-09-15T10:11:41.190Z,2.90
2018-09-15T10:14:10.727Z,1.80
2018-09-15T10:16:39.426Z,2.43
2018-09-15T10:19:11.684Z,3.30
2018-09-15T10:21:40.248Z,3.00
2018-09-15T10:24:08.504Z,3.40
2018-09-15T10:26:36.777Z,3.40
2018-09-15T10:29:05.071Z,2.50
2018-09-15T10:31:33.359Z,3.27
2018-09-15T10:34:02.093Z,3.10
2018-09-15T10:36:31.538Z,2.17
2018-09-15T10:39:00.010Z,2.60
2018-09-15T10:41:28.530Z,2.37
2018-09-15T10:43:56.904Z,2.80
2018-09-15T10:46:25.214Z,1.43
2018-09-15T10:48:54.085Z,3.33
2018-09-15T10:51:22.632Z,2.30
2018-09-15T10:53:50.912Z,1.97
2018-09-15T10:56:19.190Z,2.37
2018-09-15T10:58:47.470Z,3.30
2018-09-15T11:01:15.791Z,3.00
2018-09-15T11:03:44.360Z,2.20
2018-09-15T11:06:13.080Z,2.70
2018-09-15T11:08:41.463Z,2.67
2018-09-15T11:11:09.858Z,2.70
2018-09-15T11:13:38.258Z,2.57
2018-09-15T11:16:06.634Z,2.00
2018-09-15T11:18:35.212Z,2.30
2018-09-15T11:21:04.200Z,2.07
2018-09-15T11:23:32.624Z,1.90
2018-09-15T11:26:01.162Z,2.50
2018-09-15T11:28:30.056Z,2.23
2018-09-15T11:30:59.474Z,1.83
2018-09-15T11:33:28.268Z,2.20
2018-09-15T11:35:56.566Z,2.10
2018-09-15T11:58:29.582Z,2.60
2018-09-15T12:01:00.265Z,2.10
2018-09-15T12:03:28.677Z,1.97
2018-09-15T12:05:56.962Z,1.53
2018-09-15T12:08:25.202Z,2.07
2018-09-15T12:10:53.465Z,2.00
2018-09-15T12:13:21.725Z,2.20
2018-09-15T12:15:50.318Z,1.97
2018-09-15T12:18:18.719Z,1.93
2018-09-15T12:20:46.969Z,2.10
2018-09-15T12:23:15.257Z,1.70
2018-09-15T12:25:45.461Z,1.70
2018-09-15T12:28:13.853Z,1.70
2018-09-15T12:30:42.115Z,2.03
2018-09-15T12:33:10.390Z,1.80
2018-09-15T12:35:39.738Z,2.13
2018-09-15T12:38:08.146Z,1.20
2018-09-15T12:40:36.406Z,1.53
2018-09-15T12:46:07.586Z,1.43
2018-09-15T12:48:38.871Z,1.30
2018-09-15T12:51:09.040Z,1.70
2018-09-15T12:56:41.826Z,1.70
2018-09-15T12:59:10.848Z,1.90
2018-09-15T13:01:39.146Z,1.93
2018-09-15T13:04:07.438Z,1.87
2018-09-15T13:06:37.445Z,1.80
2018-09-15T13:09:08.223Z,1.80
2018-09-15T13:17:42.585Z,1.37
2018-09-15T13:20:12.849Z,1.53
2018-09-15T13:23:31.479Z,1.93
2018-09-15T13:29:04.358Z,1.37
2018-09-15T13:31:35.608Z,1.50
2018-09-15T13:34:16.203Z,1.50
2018-09-15T13:36:45.860Z,1.63
2018-09-15T13:39:15.064Z,1.47
2018-09-15T13:41:43.340Z,1.20
2018-09-15T13:44:11.644Z,1.80
2018-09-15T13:46:41.674Z,1.20
2018-09-15T13:49:20.317Z,1.20
2018-09-15T13:51:49.657Z,1.53
2018-09-15T13:57:27.302Z,1.57
2018-09-15T14:16:55.048Z,1.20
2018-09-15T14:19:24.457Z,1.47
2018-09-15T14:22:01.954Z,1.67
2018-09-15T14:24:32.098Z,1.00
2018-09-15T14:27:01.630Z,1.20
2018-09-15T14:29:31.459Z,1.93
2018-09-15T14:31:59.783Z,1.80
2018-09-15T14:34:28.275Z,1.43
2018-09-15T14:37:04.540Z,2.40
2018-09-15T14:39:32.800Z,1.60
2018-09-15T14:42:01.042Z,1.63
2018-09-15T14:44:29.290Z,1.07
2018-09-15T14:46:57.700Z,1.83
2018-09-15T14:49:26.059Z,2.30
2018-09-15T14:51:54.369Z,1.40
2018-09-15T14:54:22.682Z,1.40
2018-09-15T14:56:51.025Z,2.00
2018-09-15T14:59:19.320Z,1.97
2018-09-15T15:01:47.673Z,1.70
2018-09-15T15:04:15.827Z,1.60
2018-09-15T15:06:44.100Z,1.97
2018-09-15T15:09:12.462Z,1.50
2018-09-15T15:11:41.029Z,1.23
2018-09-15T15:14:09.830Z,1.67
2018-09-15T15:16:38.255Z,1.60
2018-09-15T15:19:07.064Z,1.77
2018-09-15T15:21:35.346Z,1.53
2018-09-15T15:24:04.110Z,1.30
2018-09-15T15:26:32.544Z,1.53
2018-09-15T15:29:00.841Z,1.80
2018-09-15T15:31:29.131Z,1.97
2018-09-15T15:33:57.379Z,1.70
2018-09-15T15:36:25.652Z,1.53
2018-09-15T15:38:53.899Z,1.90
2018-09-15T15:41:22.228Z,1.93
2018-09-15T15:43:50.631Z,1.67
2018-09-15T15:46:18.867Z,1.60
2018-09-15T15:48:47.217Z,2.00
2018-09-15T15:51:15.652Z,1.30
2018-09-15T15:53:43.900Z,1.40
2018-09-15T15:56:12.163Z,1.30
2018-09-15T15:58:40.557Z,1.60
2018-09-15T16:01:08.678Z,1.47
2018-09-15T16:03:37.138Z,1.40
2018-09-15T16:06:05.428Z,1.33
2018-09-15T16:08:33.725Z,1.23
2018-09-15T16:11:02.059Z,1.53
2018-09-15T16:13:30.354Z,1.63
2018-09-15T16:15:58.596Z,1.73
2018-09-15T16:18:26.872Z,1.87
2018-09-15T16:20:55.112Z,1.70
2018-09-15T16:23:23.444Z,1.57
2018-09-15T16:25:51.831Z,1.80
2018-09-15T16:28:20.130Z,1.60
2018-09-15T16:30:48.685Z,2.10
2018-09-15T16:33:16.952Z,1.67
2018-09-15T16:35:45.238Z,1.50
2018-09-15T16:38:13.800Z,1.43
2018-09-15T16:40:42.141Z,1.50
2018-09-15T16:43:10.344Z,1.90
2018-09-15T16:45:38.575Z,2.13
2018-09-15T16:48:07.025Z,1.57
2018-09-15T16:50:35.376Z,1.90
2018-09-15T16:53:03.956Z,1.60
2018-09-15T16:55:32.188Z,1.97
2018-09-15T16:58:00.465Z,1.80
2018-09-15T17:00:28.794Z,1.87
2018-09-15T17:02:57.039Z,1.50
2018-09-15T17:05:25.298Z,1.90
2018-09-15T17:07:53.580Z,1.73
2018-09-15T17:10:21.951Z,2.10
2018-09-15T17:12:51.368Z,1.50
2018-09-15T17:15:19.631Z,2.13
2018-09-15T17:17:47.935Z,1.70
2018-09-15T17:20:16.258Z,1.80
2018-09-15T17:22:44.503Z,1.77
2018-09-15T17:25:12.824Z,2.40
2018-09-15T17:27:41.067Z,2.13
2018-09-15T17:30:09.332Z,2.00
2018-09-15T17:32:37.606Z,1.70
2018-09-15T17:35:05.915Z,2.00
2018-09-15T17:37:34.174Z,1.67
2018-09-15T17:40:02.438Z,2.40
2018-09-15T17:42:30.698Z,2.53
2018-09-15T17:44:58.949Z,2.03
2018-09-15T17:47:27.211Z,2.30
2018-09-15T17:49:55.576Z,2.20
2018-09-15T17:52:23.857Z,13.03
2018-09-15T17:54:52.233Z,8.17
2018-09-15T17:57:20.442Z,7.67
2018-09-15T17:59:48.720Z,6.13
2018-09-15T18:02:17.056Z,5.53
2018-09-15T18:04:45.602Z,4.30
2018-09-15T18:07:13.855Z,4.87
2018-09-15T18:09:42.253Z,5.97
2018-09-15T18:12:10.464Z,6.33
2018-09-15T18:14:39.045Z,6.73
2018-09-15T18:17:07.319Z,4.83
2018-09-15T18:19:35.635Z,3.93
2018-09-15T18:22:03.971Z,3.30
2018-09-15T18:24:32.255Z,3.20
2018-09-15T18:27:00.487Z,3.63
2018-09-15T18:29:28.759Z,3.33
2018-09-15T18:31:57.022Z,3.20
2018-09-15T18:34:25.279Z,2.97
2018-09-15T18:36:53.732Z,3.30
2018-09-15T18:39:21.831Z,3.30
2018-09-15T18:41:50.059Z,3.63
2018-09-15T18:44:18.386Z,3.73
2018-09-15T18:46:46.707Z,4.10
2018-09-15T18:49:14.987Z,3.00
2018-09-15T18:51:43.230Z,4.17
2018-09-15T18:54:11.590Z,3.00
2018-09-15T18:56:39.869Z,3.17
2018-09-15T18:59:08.160Z,2.93
2018-09-15T19:01:36.433Z,3.80
2018-09-15T19:04:04.724Z,4.80
2018-09-15T19:06:33.027Z,3.37
2018-09-15T19:09:01.270Z,2.77
2018-09-15T19:11:29.578Z,3.73
2018-09-15T19:13:57.817Z,3.40
2018-09-15T19:16:26.082Z,3.10
2018-09-15T19:18:54.328Z,3.70
2018-09-15T19:21:22.588Z,4.07
2018-09-15T19:23:50.848Z,3.60
2018-09-15T19:26:19.106Z,4.70
2018-09-15T19:28:47.416Z,3.80
2018-09-15T19:31:15.679Z,4.03
2018-09-15T19:33:43.922Z,3.00
2018-09-15T19:36:12.201Z,3.80
2018-09-15T19:38:40.448Z,4.37
2018-09-15T19:41:08.731Z,5.03
2018-09-15T19:43:37.035Z,5.37
2018-09-15T19:46:05.335Z,5.80
2018-09-15T19:48:33.600Z,5.27
2018-09-15T19:51:01.831Z,5.10
2018-09-15T19:53:30.075Z,5.83
2018-09-15T19:55:58.324Z,6.67
2018-09-15T19:58:26.553Z,5.70
2018-09-15T20:00:54.818Z,5.33
2018-09-15T20:03:23.083Z,5.00
2018-09-15T20:05:51.407Z,6.53
2018-09-15T20:08:21.304Z,5.87
2018-09-15T20:10:49.556Z,4.97
2018-09-15T20:13:17.834Z,6.40
2018-09-15T20:15:45.030Z,5.90
2018-09-15T20:18:12.279Z,5.60
2018-09-15T20:20:39.500Z,6.27
2018-09-15T20:23:07.742Z,5.60
2018-09-15T20:25:35.992Z,5.53
2018-09-15T20:28:04.411Z,6.10
2018-09-15T20:30:32.697Z,5.27
2018-09-15T20:33:01.052Z,5.63
2018-09-15T20:35:29.251Z,6.47
2018-09-15T20:37:57.533Z,5.50
2018-09-15T20:40:25.927Z,7.00
2018-09-15T20:42:54.188Z,7.40
2018-09-15T20:45:22.482Z,5.43
2018-09-15T20:47:50.824Z,5.73
2018-09-15T20:50:19.048Z,5.67
2018-09-15T20:52:47.319Z,5.97
2018-09-15T20:55:15.554Z,5.50
2018-09-15T20:57:43.858Z,5.33
2018-09-15T21:00:12.157Z,5.23
2018-09-15T21:02:41.159Z,7.37
2018-09-15T21:05:09.851Z,7.70
2018-09-15T21:07:38.115Z,5.90
2018-09-15T21:10:06.609Z,5.73
2018-09-15T21:12:35.074Z,5.30
2018-09-15T21:15:03.397Z,5.60
2018-09-15T21:17:31.671Z,5.50
2018-09-15T21:19:59.962Z,5.40
2018-09-15T21:22:28.649Z,6.57
2018-09-15T21:24:56.963Z,5.80
2018-09-15T21:27:25.383Z,6.00
2018-09-15T21:30:01.887Z,6.50
2018-09-15T21:32:37.984Z,6.50
2018-09-15T21:35:08.912Z,7.30
2018-09-15T21:37:37.214Z,7.10
2018-09-15T21:40:05.431Z,6.50
2018-09-15T21:42:33.722Z,6.60
2018-09-15T21:45:01.965Z,6.27
2018-09-15T21:47:30.217Z,6.47
2018-09-15T21:49:58.452Z,6.50
2018-09-15T21:52:26.836Z,6.40
2018-09-15T21:54:55.123Z,6.63
2018-09-15T21:57:23.353Z,7.40
2018-09-15T21:59:51.614Z,7.30
2018-09-15T22:02:22.187Z,6.90
2018-09-15T22:04:50.815Z,6.53
2018-09-15T22:07:19.142Z,7.23
2018-09-15T22:09:47.451Z,6.17
2018-09-15T22:12:15.850Z,6.30
2018-09-15T22:14:44.136Z,6.10
2018-09-15T22:17:12.512Z,6.80
2018-09-15T22:19:40.771Z,6.63
2018-09-15T22:22:09.022Z,5.73
2018-09-15T22:24:37.288Z,6.57
2018-09-15T22:27:05.563Z,6.13
2018-09-15T22:29:33.923Z,5.60
2018-09-15T22:32:02.220Z,5.33
2018-09-15T22:34:31.081Z,5.67
2018-09-15T22:36:59.319Z,5.57
2018-09-15T22:39:27.580Z,5.67
2018-09-15T22:41:55.836Z,6.07
2018-09-15T22:44:24.091Z,6.97
2018-09-15T22:46:52.363Z,5.97
2018-09-15T22:49:20.612Z,6.70
2018-09-15T22:51:48.875Z,6.27
2018-09-15T22:54:17.205Z,6.50
2018-09-15T22:56:45.367Z,6.43
2018-09-15T22:59:13.614Z,5.70
2018-09-15T23:01:41.886Z,5.83
2018-09-15T23:04:11.929Z,6.40
2018-09-15T23:06:40.227Z,5.37
2018-09-15T23:09:09.915Z,4.63
2018-09-15T23:11:38.158Z,5.50
2018-09-15T23:14:06.547Z,7.63
2018-09-15T23:16:34.772Z,6.63
2018-09-15T23:19:03.135Z,5.80
2018-09-15T23:21:31.515Z,7.10
2018-09-15T23:23:59.871Z,6.70
2018-09-15T23:26:28.194Z,6.43
2018-09-15T23:28:56.420Z,6.70
2018-09-15T23:31:24.788Z,6.13
2018-09-15T23:33:53.028Z,6.87
2018-09-15T23:36:21.263Z,7.10
2018-09-15T23:38:49.543Z,6.07
2018-09-15T23:41:17.801Z,6.20
2018-09-15T23:43:46.050Z,5.67
2018-09-15T23:46:14.307Z,5.47
2018-09-15T23:48:42.596Z,5.63
2018-09-15T23:51:10.818Z,5.43
2018-09-15T23:53:39.155Z,5.30
2018-09-15T23:56:07.386Z,5.70
2018-09-15T23:58:35.684Z,5.67
